Time;durP1;ratioP1;P1;durP2;ratioP2;P2;SDS_P1;SDS_P2;PMS_P1;PMS_P2;Temp;Humidity;BMP_temperature;BMP_pressure;BME280_temperature;BME280_humidity;BME280_pressure;Samples;Min_cycle;Max_cycle;Signal;HPM_P1;HPM_P2
2022/08/02 00:01:58;;;;;;;;;;;16.90;99.90;;;;;;8432395;28;20283;-69
2022/08/02 00:06:00;;;;;;;;;;;16.90;99.90;;;;;;8408478;28;20006;-69
2022/08/02 00:10:03;;;;;;;;;;;16.80;99.90;;;;;;8427044;28;19920;-69
2022/08/02 00:14:04;;;;;;;;;;;16.80;99.90;;;;;;8431070;28;19947;-69
2022/08/02 00:18:06;;;;;;;;;;;16.80;99.90;;;;;;8425269;28;20095;-69
2022/08/02 00:22:08;;;;;;;;;;;16.80;99.90;;;;;;8427859;28;19924;-70
2022/08/02 00:26:10;;;;;;;;;;;16.80;99.90;;;;;;8430131;28;19924;-69
2022/08/02 00:30:11;;;;;;;;;;;16.80;99.90;;;;;;8422609;28;19920;-69
2022/08/02 00:34:13;;;;;;;;;;;16.70;99.90;;;;;;8460858;28;20350;-69
2022/08/02 00:38:31;;;;;;;;;;;16.70;99.90;;;;;;8441335;28;19919;-69
2022/08/02 00:42:33;;;;;;;;;;;16.60;99.90;;;;;;8445032;28;20367;-69
2022/08/02 00:46:34;;;;;;;;;;;16.60;99.90;;;;;;8464531;28;19950;-69
2022/08/02 00:50:37;;;;;;;;;;;16.50;99.90;;;;;;8463995;28;19930;-69
2022/08/02 00:54:38;;;;;;;;;;;16.50;99.90;;;;;;8442082;28;20251;-69
2022/08/02 00:58:40;;;;;;;;;;;16.50;99.90;;;;;;8462658;28;20294;-69
2022/08/02 01:02:42;;;;;;;;;;;16.50;99.90;;;;;;8440334;28;19924;-69
2022/08/02 01:06:43;;;;;;;;;;;16.40;99.90;;;;;;8440095;28;20241;-69
2022/08/02 01:10:45;;;;;;;;;;;16.30;99.90;;;;;;8461033;28;20384;-69
2022/08/02 01:14:48;;;;;;;;;;;16.30;99.90;;;;;;8445560;28;19919;-69
2022/08/02 01:18:52;;;;;;;;;;;16.20;99.90;;;;;;8461823;28;19931;-69
2022/08/02 01:23:12;;;;;;;;;;;16.20;99.90;;;;;;8462347;28;19919;-71
2022/08/02 01:27:26;;;;;;;;;;;16.20;99.90;;;;;;8450393;28;20402;-72
2022/08/02 01:31:43;;;;;;;;;;;16.10;99.90;;;;;;8452528;28;19919;-71
2022/08/02 01:35:48;;;;;;;;;;;16.10;99.90;;;;;;8452494;28;20287;-71
2022/08/02 01:39:56;;;;;;;;;;;16.10;99.90;;;;;;8437419;28;19919;-71
2022/08/02 01:43:59;;;;;;;;;;;16.10;99.90;;;;;;8462915;28;19919;-71
2022/08/02 01:48:01;;;;;;;;;;;16.20;99.90;;;;;;8461188;28;20371;-72
2022/08/02 01:52:21;;;;;;;;;;;16.20;99.90;;;;;;8461984;28;19919;-72
2022/08/02 01:56:23;;;;;;;;;;;16.30;99.90;;;;;;8462334;28;19920;-71
2022/08/02 02:05:30;;;;;;;;;;;16.30;99.90;;;;;;8458419;28;19915;-72
2022/08/02 02:09:34;;;;;;;;;;;16.40;99.90;;;;;;8461205;28;19923;-72
2022/08/02 02:13:37;;;;;;;;;;;16.40;99.90;;;;;;8462320;28;20215;-71
2022/08/02 02:17:41;;;;;;;;;;;16.40;99.90;;;;;;8460544;28;19919;-72
2022/08/02 02:22:03;;;;;;;;;;;16.40;99.90;;;;;;8454884;28;19958;-72
2022/08/02 02:26:06;;;;;;;;;;;16.40;99.90;;;;;;8441320;28;20334;-71
2022/08/02 02:30:08;;;;;;;;;;;16.40;99.90;;;;;;8460755;28;19927;-72
2022/08/02 02:34:14;;;;;;;;;;;16.40;99.90;;;;;;8460189;28;19919;-72
2022/08/02 02:38:17;;;;;;;;;;;16.40;99.90;;;;;;8406730;28;19924;-72
2022/08/02 02:42:21;;;;;;;;;;;16.50;99.90;;;;;;8461239;28;19920;-71
2022/08/02 02:46:23;;;;;;;;;;;16.40;99.90;;;;;;8442216;28;19927;-72
2022/08/02 02:50:25;;;;;;;;;;;16.50;99.90;;;;;;8459633;28;20267;-71
2022/08/02 02:54:27;;;;;;;;;;;16.40;99.90;;;;;;8460824;28;20290;-72
2022/08/02 02:58:36;;;;;;;;;;;16.50;99.90;;;;;;8459406;28;19919;-72
2022/08/02 03:02:39;;;;;;;;;;;16.50;99.90;;;;;;8460680;28;19920;-71
2022/08/02 03:06:40;;;;;;;;;;;16.50;99.90;;;;;;8458476;28;19962;-71
2022/08/02 03:10:43;;;;;;;;;;;16.50;99.90;;;;;;8438707;28;19923;-71
2022/08/02 03:14:45;;;;;;;;;;;16.50;99.90;;;;;;8461030;28;19924;-72
2022/08/02 03:18:46;;;;;;;;;;;16.50;99.90;;;;;;8458692;28;20279;-72
2022/08/02 03:22:48;;;;;;;;;;;16.50;99.90;;;;;;8460692;28;20219;-71
2022/08/02 03:26:50;;;;;;;;;;;16.50;99.90;;;;;;8459554;28;20298;-72
2022/08/02 03:30:52;;;;;;;;;;;16.50;99.90;;;;;;8460327;28;19920;-71
2022/08/02 03:34:53;;;;;;;;;;;16.40;99.90;;;;;;8459841;28;20259;-72
2022/08/02 03:38:55;;;;;;;;;;;16.40;99.90;;;;;;8426739;28;20290;-72
2022/08/02 03:42:58;;;;;;;;;;;16.40;99.90;;;;;;8460978;28;19942;-72
2022/08/02 03:46:59;;;;;;;;;;;16.40;99.90;;;;;;8438405;28;19930;-72
2022/08/02 03:51:01;;;;;;;;;;;16.40;99.90;;;;;;8466097;28;20314;-72
2022/08/02 03:55:03;;;;;;;;;;;16.40;99.90;;;;;;8467171;28;19920;-71
2022/08/02 03:59:06;;;;;;;;;;;16.40;99.90;;;;;;8465748;28;19919;-72
2022/08/02 04:03:08;;;;;;;;;;;16.40;99.90;;;;;;8466696;28;19965;-72
2022/08/02 04:07:09;;;;;;;;;;;16.40;99.90;;;;;;8462464;28;19919;-72
2022/08/02 04:11:29;;;;;;;;;;;16.40;99.90;;;;;;8465690;28;19935;-71
2022/08/02 04:15:31;;;;;;;;;;;16.40;99.90;;;;;;8455484;28;19927;-72
2022/08/02 04:19:37;;;;;;;;;;;16.40;99.90;;;;;;8464639;28;19919;-72
2022/08/02 04:23:40;;;;;;;;;;;16.40;99.90;;;;;;8453532;28;19928;-72
2022/08/02 04:27:42;;;;;;;;;;;16.40;99.90;;;;;;8458158;28;19927;-72
2022/08/02 04:32:05;;;;;;;;;;;16.30;99.90;;;;;;8464644;28;20449;-71
2022/08/02 04:36:07;;;;;;;;;;;16.30;99.90;;;;;;8447082;28;19927;-72
2022/08/02 04:40:09;;;;;;;;;;;16.30;99.90;;;;;;8444966;28;19934;-72
2022/08/02 04:49:15;;;;;;;;;;;16.30;99.90;;;;;;8450418;28;19966;-71
2022/08/02 04:53:17;;;;;;;;;;;16.30;99.90;;;;;;8464580;28;19923;-72
2022/08/02 05:01:41;;;;;;;;;;;16.30;99.90;;;;;;8451643;28;20263;-72
2022/08/02 05:05:42;;;;;;;;;;;16.30;99.90;;;;;;8459417;28;19924;-72
2022/08/02 05:09:44;;;;;;;;;;;16.40;99.90;;;;;;8437808;28;19920;-71
2022/08/02 05:13:46;;;;;;;;;;;16.40;99.90;;;;;;8463671;28;20271;-72
2022/08/02 05:23:03;;;;;;;;;;;16.60;99.90;;;;;;8453658;28;19915;-71
2022/08/02 05:27:04;;;;;;;;;;;16.60;99.90;;;;;;8463997;28;19931;-71
2022/08/02 05:31:17;;;;;;;;;;;16.70;99.90;;;;;;8461960;28;19963;-72
2022/08/02 05:35:20;;;;;;;;;;;16.70;99.90;;;;;;8457662;28;20363;-71
2022/08/02 05:39:22;;;;;;;;;;;16.80;99.90;;;;;;8429927;28;19939;-71
2022/08/02 05:43:23;;;;;;;;;;;16.90;99.90;;;;;;8440887;28;19924;-71
2022/08/02 05:47:25;;;;;;;;;;;17.00;99.90;;;;;;8463126;28;19920;-71
2022/08/02 05:51:38;;;;;;;;;;;17.10;99.90;;;;;;8398630;28;19920;-72
2022/08/02 05:55:43;;;;;;;;;;;17.20;99.90;;;;;;8390013;28;19943;-71
2022/08/02 05:59:51;;;;;;;;;;;17.30;99.90;;;;;;8389964;28;19924;-71
2022/08/02 06:03:55;;;;;;;;;;;17.40;99.90;;;;;;8390558;28;20321;-72
2022/08/02 06:07:58;;;;;;;;;;;17.40;99.90;;;;;;8391103;28;19933;-72
2022/08/02 06:12:01;;;;;;;;;;;17.40;99.90;;;;;;8387890;28;20375;-72
2022/08/02 06:21:09;;;;;;;;;;;17.40;99.90;;;;;;8386195;28;19922;-71
2022/08/02 06:35:47;;;;;;;;;;;17.70;99.90;;;;;;8387856;28;20088;-71
2022/08/02 06:39:53;;;;;;;;;;;17.80;99.90;;;;;;8387064;28;19924;-71
2022/08/02 06:43:55;;;;;;;;;;;17.90;99.90;;;;;;8388183;28;19925;-71
2022/08/02 06:47:57;;;;;;;;;;;18.10;99.90;;;;;;8388130;28;19933;-71
2022/08/02 06:51:58;;;;;;;;;;;18.20;99.90;;;;;;8388614;28;19928;-68
2022/08/02 06:56:00;;;;;;;;;;;18.30;99.90;;;;;;8402994;28;20004;-69
2022/08/02 07:00:05;;;;;;;;;;;18.40;99.90;;;;;;8389001;28;19925;-69
2022/08/02 07:04:08;;;;;;;;;;;18.50;99.90;;;;;;8388748;28;19928;-69
2022/08/02 07:08:09;;;;;;;;;;;18.70;99.90;;;;;;8384074;28;19925;-69
2022/08/02 07:12:11;;;;;;;;;;;18.80;99.90;;;;;;8388145;28;19932;-68
2022/08/02 07:16:13;;;;;;;;;;;18.90;99.90;;;;;;8391283;28;19928;-69
2022/08/02 07:20:15;;;;;;;;;;;18.90;99.90;;;;;;8379860;28;19925;-68
2022/08/02 07:24:16;;;;;;;;;;;19.00;99.90;;;;;;8396086;28;19928;-69
2022/08/02 07:33:22;;;;;;;;;;;19.10;99.90;;;;;;8392449;28;19938;-69
2022/08/02 07:37:41;;;;;;;;;;;19.20;99.90;;;;;;8393172;28;19964;-69
2022/08/02 07:41:56;;;;;;;;;;;19.30;99.90;;;;;;8393784;28;20426;-68
2022/08/02 07:45:57;;;;;;;;;;;19.40;99.90;;;;;;8395706;28;20256;-69
2022/08/02 07:50:01;;;;;;;;;;;19.50;99.90;;;;;;8392906;28;19924;-69
2022/08/02 07:54:04;;;;;;;;;;;19.70;99.90;;;;;;8409828;27;19960;-69
2022/08/02 08:03:24;;;;;;;;;;;19.90;99.90;;;;;;8396792;28;20374;-69
2022/08/02 08:07:26;;;;;;;;;;;20.10;99.90;;;;;;8394569;28;19935;-68
2022/08/02 08:11:28;;;;;;;;;;;20.10;99.90;;;;;;8392246;28;19924;-69
2022/08/02 08:15:29;;;;;;;;;;;20.20;99.90;;;;;;8393767;28;19928;-69
2022/08/02 08:19:31;;;;;;;;;;;20.30;99.90;;;;;;8392181;28;19928;-69
2022/08/02 08:33:58;;;;;;;;;;;20.50;99.90;;;;;;8389842;28;19927;-69
2022/08/02 08:38:00;;;;;;;;;;;20.60;99.90;;;;;;8392137;28;19929;-69
2022/08/02 08:42:07;;;;;;;;;;;20.70;99.90;;;;;;8391992;28;19984;-68
2022/08/02 08:46:10;;;;;;;;;;;20.80;99.90;;;;;;8393578;28;19924;-69
2022/08/02 08:50:20;;;;;;;;;;;20.90;99.90;;;;;;8389639;28;19952;-69
2022/08/02 08:54:26;;;;;;;;;;;21.00;99.90;;;;;;8392732;28;20324;-69
2022/08/02 08:58:28;;;;;;;;;;;21.00;99.90;;;;;;8390597;28;19928;-68
2022/08/02 09:02:31;;;;;;;;;;;21.00;99.90;;;;;;8392136;28;19928;-68
2022/08/02 09:06:33;;;;;;;;;;;21.10;99.90;;;;;;8374317;28;19936;-68
2022/08/02 09:10:40;;;;;;;;;;;21.20;99.90;;;;;;8389055;28;19924;-69
2022/08/02 09:14:42;;;;;;;;;;;21.30;99.90;;;;;;8375288;28;20319;-69
2022/08/02 09:18:44;;;;;;;;;;;21.40;99.90;;;;;;8389552;28;19932;-68
2022/08/02 09:23:04;;;;;;;;;;;21.50;99.90;;;;;;8394681;28;19924;-69
2022/08/02 09:27:09;;;;;;;;;;;21.70;99.90;;;;;;8393437;28;19928;-69
2022/08/02 09:31:12;;;;;;;;;;;21.80;99.90;;;;;;8390982;28;19983;-69
2022/08/02 09:35:29;;;;;;;;;;;22.00;99.90;;;;;;8390956;28;20275;-68
2022/08/02 09:39:42;;;;;;;;;;;22.10;99.90;;;;;;8395682;28;19931;-69
2022/08/02 09:43:44;;;;;;;;;;;22.20;99.90;;;;;;8391129;28;19932;-69
2022/08/02 09:48:08;;;;;;;;;;;22.20;99.90;;;;;;8387795;28;19932;-69
2022/08/02 10:02:16;;;;;;;;;;;22.50;99.90;;;;;;8390384;28;20403;-69
2022/08/02 10:06:20;;;;;;;;;;;22.50;99.90;;;;;;8403326;27;19925;-69
2022/08/02 10:10:22;;;;;;;;;;;22.60;99.90;;;;;;8390635;28;19964;-69
2022/08/02 10:14:24;;;;;;;;;;;22.70;99.90;;;;;;8390532;28;19935;-69
2022/08/02 10:18:26;;;;;;;;;;;22.80;99.90;;;;;;8372030;28;19967;-69
2022/08/02 10:22:43;;;;;;;;;;;22.80;99.90;;;;;;8392971;28;19928;-69
2022/08/02 10:26:45;;;;;;;;;;;22.90;99.90;;;;;;8390837;28;19932;-69
2022/08/02 10:30:48;;;;;;;;;;;23.00;99.90;;;;;;8372601;28;20376;-69
2022/08/02 10:34:55;;;;;;;;;;;23.00;99.90;;;;;;8387104;28;19931;-68
2022/08/02 10:38:57;;;;;;;;;;;23.20;99.90;;;;;;8386355;28;20352;-69
2022/08/02 10:42:59;;;;;;;;;;;23.30;99.90;;;;;;8388470;28;19931;-69
2022/08/02 10:47:15;;;;;;;;;;;23.50;99.90;;;;;;8387024;28;23073;-69
2022/08/02 10:51:17;;;;;;;;;;;23.60;99.90;;;;;;8388312;28;20311;-69
2022/08/02 10:55:19;;;;;;;;;;;23.60;99.90;;;;;;8393528;28;19924;-69
2022/08/02 10:59:30;;;;;;;;;;;23.60;99.90;;;;;;8400709;28;19932;-69
2022/08/02 11:03:32;;;;;;;;;;;23.70;99.90;;;;;;8401041;28;20284;-69
2022/08/02 11:07:35;;;;;;;;;;;23.80;99.90;;;;;;8402229;28;19931;-69
2022/08/02 11:11:56;;;;;;;;;;;23.80;99.90;;;;;;8398098;28;19928;-69
2022/08/02 11:16:03;;;;;;;;;;;23.90;99.90;;;;;;8397864;28;19931;-69
2022/08/02 11:20:11;;;;;;;;;;;24.00;99.90;;;;;;8399186;28;20362;-69
2022/08/02 11:24:23;;;;;;;;;;;24.10;99.90;;;;;;8398215;28;19931;-69
2022/08/02 11:28:25;;;;;;;;;;;24.10;99.90;;;;;;8397146;28;19925;-69
2022/08/02 11:32:27;;;;;;;;;;;24.20;99.90;;;;;;8399374;28;19936;-69
2022/08/02 11:36:31;;;;;;;;;;;24.20;99.90;;;;;;8395660;28;19959;-69
2022/08/02 11:40:36;;;;;;;;;;;24.30;99.90;;;;;;8400398;28;19931;-69
2022/08/02 11:44:39;;;;;;;;;;;24.40;99.90;;;;;;8381038;28;20309;-69
2022/08/02 11:48:42;;;;;;;;;;;24.60;99.90;;;;;;8396237;28;19924;-69
2022/08/02 11:52:44;;;;;;;;;;;24.70;99.90;;;;;;8398227;28;20552;-69
2022/08/02 11:56:46;;;;;;;;;;;24.80;99.90;;;;;;8397961;28;19939;-69
2022/08/02 12:00:47;;;;;;;;;;;24.90;99.90;;;;;;8398993;28;19924;-69
2022/08/02 12:04:56;;;;;;;;;;;24.90;99.90;;;;;;8404579;28;19931;-69
2022/08/02 12:09:05;;;;;;;;;;;24.90;99.90;;;;;;8377949;28;19936;-69
2022/08/02 12:13:06;;;;;;;;;;;25.00;99.90;;;;;;8393487;28;20012;-69
2022/08/02 12:21:28;;;;;;;;;;;25.20;99.90;;;;;;8394954;28;19939;-69
2022/08/02 12:25:30;;;;;;;;;;;25.20;99.90;;;;;;8396813;28;19924;-69
2022/08/02 12:29:35;;;;;;;;;;;25.30;99.90;;;;;;8392103;28;20370;-69
2022/08/02 12:33:57;;;;;;;;;;;25.30;99.90;;;;;;8393117;28;19964;-68
2022/08/02 12:38:07;;;;;;;;;;;25.40;99.90;;;;;;8392467;28;19935;-69
2022/08/02 12:42:10;;;;;;;;;;;25.40;99.90;;;;;;8394709;28;19947;-69
2022/08/02 12:46:16;;;;;;;;;;;25.40;99.90;;;;;;8392337;28;20697;-69
2022/08/02 12:50:36;;;;;;;;;;;25.40;99.90;;;;;;8390807;28;19931;-69
2022/08/02 12:54:38;;;;;;;;;;;25.50;99.90;;;;;;8390998;28;19924;-69
2022/08/02 12:58:50;;;;;;;;;;;25.60;99.90;;;;;;8392487;28;19924;-69
2022/08/02 13:02:52;;;;;;;;;;;25.60;99.90;;;;;;8393084;28;19925;-69
2022/08/02 13:22:03;;;;;;;;;;;25.80;99.90;;;;;;8389674;28;19920;-69
2022/08/02 13:26:05;;;;;;;;;;;25.80;99.90;;;;;;8391208;28;19932;-69
2022/08/02 13:30:07;;;;;;;;;;;25.90;99.90;;;;;;8388753;28;19936;-69
2022/08/02 13:34:08;;;;;;;;;;;26.00;99.90;;;;;;8389753;28;19928;-69
2022/08/02 13:38:10;;;;;;;;;;;26.00;99.90;;;;;;8388988;28;19924;-69
2022/08/02 13:42:11;;;;;;;;;;;26.00;99.90;;;;;;8392271;28;19928;-69
2022/08/02 13:46:14;;;;;;;;;;;26.10;99.90;;;;;;8391770;28;19929;-69
2022/08/02 13:50:16;;;;;;;;;;;26.20;99.90;;;;;;8388245;28;20217;-69
2022/08/02 13:54:18;;;;;;;;;;;26.30;99.90;;;;;;8390418;28;19929;-69
2022/08/02 13:58:19;;;;;;;;;;;26.30;99.90;;;;;;8391102;28;19928;-69
2022/08/02 14:02:21;;;;;;;;;;;26.40;99.90;;;;;;8390145;28;19925;-69
2022/08/02 14:06:23;;;;;;;;;;;26.40;99.90;;;;;;8390822;28;20232;-69
2022/08/02 14:10:25;;;;;;;;;;;26.40;99.90;;;;;;8388969;28;19951;-70
2022/08/02 14:14:27;;;;;;;;;;;26.40;99.90;;;;;;8391851;28;19929;-69
2022/08/02 14:18:28;;;;;;;;;;;26.40;99.90;;;;;;8385685;28;19939;-69
2022/08/02 14:22:30;;;;;;;;;;;26.40;99.90;;;;;;8392326;28;19928;-69
2022/08/02 14:26:32;;;;;;;;;;;26.40;99.90;;;;;;8390258;28;19924;-69
2022/08/02 14:30:33;;;;;;;;;;;26.50;99.90;;;;;;8386545;28;19935;-70
2022/08/02 14:34:35;;;;;;;;;;;26.50;99.90;;;;;;8385329;28;19931;-70
2022/08/02 14:38:37;;;;;;;;;;;26.60;99.90;;;;;;8387411;28;19928;-69
2022/08/02 14:42:39;;;;;;;;;;;26.60;99.90;;;;;;8389980;28;19924;-70
2022/08/02 14:46:40;;;;;;;;;;;26.70;99.90;;;;;;8387490;28;20684;-69
2022/08/02 14:50:42;;;;;;;;;;;26.70;99.90;;;;;;8386172;28;19931;-70
2022/08/02 14:54:44;;;;;;;;;;;26.80;99.90;;;;;;8387232;28;19925;-69
2022/08/02 14:58:45;;;;;;;;;;;26.90;99.90;;;;;;8388070;28;19924;-69
2022/08/02 15:02:47;;;;;;;;;;;26.90;99.90;;;;;;8387897;28;20253;-69
2022/08/02 15:06:48;;;;;;;;;;;27.00;99.90;;;;;;8386076;28;19947;-69
2022/08/02 15:10:50;;;;;;;;;;;27.00;99.90;;;;;;8387775;28;19933;-69
2022/08/02 15:14:52;;;;;;;;;;;27.10;99.90;;;;;;8388183;28;19925;-70
2022/08/02 15:18:53;;;;;;;;;;;27.10;99.90;;;;;;8387139;28;19928;-69
2022/08/02 15:22:55;;;;;;;;;;;27.10;99.90;;;;;;8403168;28;19935;-69
2022/08/02 15:26:57;;;;;;;;;;;27.10;99.90;;;;;;8386920;28;19928;-69
2022/08/02 15:30:59;;;;;;;;;;;27.10;99.90;;;;;;8386046;28;19924;-69
2022/08/02 15:35:00;;;;;;;;;;;27.10;99.90;;;;;;8387331;28;19928;-69
2022/08/02 15:39:02;;;;;;;;;;;27.10;99.90;;;;;;8387668;28;19929;-70
2022/08/02 15:43:04;;;;;;;;;;;27.30;99.90;;;;;;8372959;28;19924;-69
2022/08/02 15:47:06;;;;;;;;;;;27.40;99.90;;;;;;8393414;28;19933;-69
2022/08/02 15:51:08;;;;;;;;;;;27.40;99.90;;;;;;8406998;27;19928;-70
2022/08/02 15:55:09;;;;;;;;;;;27.60;99.90;;;;;;8394522;28;19932;-70
2022/08/02 15:59:11;;;;;;;;;;;27.80;99.90;;;;;;8393569;28;19933;-70
2022/08/02 16:03:12;;;;;;;;;;;28.00;99.90;;;;;;8394425;28;19924;-70
2022/08/02 16:07:14;;;;;;;;;;;28.30;99.90;;;;;;8392002;28;20237;-70
2022/08/02 16:11:16;;;;;;;;;;;28.70;99.90;;;;;;8392260;28;19936;-70
2022/08/02 16:15:17;;;;;;;;;;;28.90;99.90;;;;;;8376043;28;19936;-70
2022/08/02 16:19:19;;;;;;;;;;;28.80;99.90;;;;;;8390138;28;19924;-70
2022/08/02 16:23:41;;;;;;;;;;;28.50;99.90;;;;;;8388233;28;20443;-70
2022/08/02 16:28:00;;;;;;;;;;;28.00;99.90;;;;;;8390318;28;19978;-70
2022/08/02 16:32:08;;;;;;;;;;;27.80;99.90;;;;;;8392872;28;19932;-69
2022/08/02 16:36:10;;;;;;;;;;;27.60;99.90;;;;;;8373743;28;19928;-70
2022/08/02 16:40:12;;;;;;;;;;;27.50;99.90;;;;;;8388475;28;19925;-70
2022/08/02 16:44:13;;;;;;;;;;;27.40;99.90;;;;;;8374235;28;19924;-70
2022/08/02 16:48:15;;;;;;;;;;;27.30;99.90;;;;;;8406087;27;19929;-70
2022/08/02 16:52:17;;;;;;;;;;;27.20;99.90;;;;;;8397995;28;19932;-70
2022/08/02 16:56:19;;;;;;;;;;;27.20;99.90;;;;;;8375575;28;19925;-69
2022/08/02 17:00:21;;;;;;;;;;;27.00;99.90;;;;;;8390089;28;20292;-70
2022/08/02 17:04:22;;;;;;;;;;;26.90;99.90;;;;;;8390389;28;19931;-70
2022/08/02 17:08:24;;;;;;;;;;;26.90;99.90;;;;;;8390316;28;19924;-70
2022/08/02 17:12:33;;;;;;;;;;;26.90;99.90;;;;;;8387972;28;19931;-69
2022/08/02 17:16:34;;;;;;;;;;;26.90;99.90;;;;;;8391779;28;19932;-70
2022/08/02 17:20:36;;;;;;;;;;;26.80;99.90;;;;;;8388895;28;20379;-69
2022/08/02 17:24:38;;;;;;;;;;;26.80;99.90;;;;;;8389213;28;19924;-69
2022/08/02 17:28:40;;;;;;;;;;;26.80;99.90;;;;;;8388168;28;19925;-70
2022/08/02 17:32:57;;;;;;;;;;;27.00;99.90;;;;;;8391373;28;19975;-70
2022/08/02 17:36:59;;;;;;;;;;;27.20;99.90;;;;;;8351932;28;20337;-69
2022/08/02 17:41:01;;;;;;;;;;;27.30;99.90;;;;;;8355814;28;20228;-69
2022/08/02 17:45:04;;;;;;;;;;;27.30;99.90;;;;;;8339793;28;19960;-70
2022/08/02 17:49:19;;;;;;;;;;;27.30;99.90;;;;;;8354934;28;19982;-69
2022/08/02 17:53:21;;;;;;;;;;;27.30;99.90;;;;;;8356984;28;19929;-70
2022/08/02 17:57:22;;;;;;;;;;;27.30;99.90;;;;;;8354416;28;19932;-70
2022/08/02 18:01:24;;;;;;;;;;;27.30;99.90;;;;;;8356855;28;19929;-69
2022/08/02 18:05:26;;;;;;;;;;;27.30;99.90;;;;;;8357297;28;19932;-70
2022/08/02 18:09:42;;;;;;;;;;;27.20;99.90;;;;;;8369926;28;19936;-70
2022/08/02 18:13:44;;;;;;;;;;;27.20;99.90;;;;;;8356099;28;20302;-70
2022/08/02 18:17:53;;;;;;;;;;;27.20;99.90;;;;;;8368963;28;19929;-70
2022/08/02 18:21:57;;;;;;;;;;;27.10;99.90;;;;;;8356042;28;19928;-70
2022/08/02 18:25:59;;;;;;;;;;;27.00;99.90;;;;;;8374634;28;19929;-70
2022/08/02 18:30:00;;;;;;;;;;;26.90;99.90;;;;;;8355931;28;19925;-70
2022/08/02 18:34:05;;;;;;;;;;;26.80;99.90;;;;;;8366416;28;19925;-69
2022/08/02 18:38:07;;;;;;;;;;;26.70;99.90;;;;;;8387007;28;19975;-70
2022/08/02 18:42:29;;;;;;;;;;;26.70;99.90;;;;;;8390287;28;19924;-70
2022/08/02 18:46:31;;;;;;;;;;;26.70;99.90;;;;;;8391387;28;19944;-70
2022/08/02 18:50:32;;;;;;;;;;;26.60;99.90;;;;;;8386252;28;19931;-70
2022/08/02 18:54:34;;;;;;;;;;;26.50;99.90;;;;;;8370125;28;19933;-70
2022/08/02 18:58:36;;;;;;;;;;;26.40;99.90;;;;;;8386462;28;19924;-70
2022/08/02 19:02:38;;;;;;;;;;;26.30;99.90;;;;;;8388457;28;19928;-70
2022/08/02 19:06:40;;;;;;;;;;;26.30;99.90;;;;;;8389070;28;20295;-70
2022/08/02 19:10:42;;;;;;;;;;;26.20;99.90;;;;;;8379909;28;20291;-70
2022/08/02 19:14:49;;;;;;;;;;;26.10;99.90;;;;;;8388121;28;19931;-70
2022/08/02 19:18:51;;;;;;;;;;;26.00;99.90;;;;;;8393715;28;20317;-70
2022/08/02 19:22:53;;;;;;;;;;;25.90;99.90;;;;;;8392564;28;19927;-70
2022/08/02 19:26:56;;;;;;;;;;;25.90;99.90;;;;;;8393837;28;19929;-70
2022/08/02 19:30:58;;;;;;;;;;;25.80;99.90;;;;;;8408663;27;19931;-69
2022/08/02 19:35:00;;;;;;;;;;;25.70;99.90;;;;;;8395817;28;19932;-70
2022/08/02 19:39:02;;;;;;;;;;;25.50;99.90;;;;;;8391348;28;19925;-69
2022/08/02 19:43:04;;;;;;;;;;;25.40;99.90;;;;;;8392198;28;19931;-70
2022/08/02 19:52:23;;;;;;;;;;;25.20;99.90;;;;;;8393398;28;20010;-70
2022/08/02 19:56:25;;;;;;;;;;;25.10;99.90;;;;;;8394114;28;19954;-70
2022/08/02 20:00:27;;;;;;;;;;;25.10;99.90;;;;;;8395111;28;19933;-70
2022/08/02 20:04:28;;;;;;;;;;;25.00;99.90;;;;;;8407474;27;19931;-70
2022/08/02 20:08:30;;;;;;;;;;;25.00;99.90;;;;;;8390746;28;20299;-70
2022/08/02 20:12:36;;;;;;;;;;;25.00;99.90;;;;;;8393930;28;20352;-70
2022/08/02 20:16:38;;;;;;;;;;;24.90;99.90;;;;;;8394771;28;19992;-70
2022/08/02 20:20:42;;;;;;;;;;;24.80;99.90;;;;;;8387275;28;19943;-70
2022/08/02 20:24:44;;;;;;;;;;;24.80;99.90;;;;;;8393427;28;19978;-70
2022/08/02 20:28:47;;;;;;;;;;;24.70;99.90;;;;;;8391061;28;19924;-70
2022/08/02 20:32:49;;;;;;;;;;;24.60;99.90;;;;;;8394074;28;19928;-70
2022/08/02 20:36:53;;;;;;;;;;;24.50;99.90;;;;;;8391249;28;19925;-70
2022/08/02 20:40:55;;;;;;;;;;;24.50;99.90;;;;;;8390922;28;19925;-70
2022/08/02 20:44:57;;;;;;;;;;;24.40;99.90;;;;;;8391296;28;19929;-70
2022/08/02 20:48:58;;;;;;;;;;;24.30;99.90;;;;;;8405692;27;19925;-70
2022/08/02 20:53:04;;;;;;;;;;;24.20;99.90;;;;;;8390859;28;19928;-70
2022/08/02 20:57:06;;;;;;;;;;;24.10;99.90;;;;;;8388814;28;19924;-70
2022/08/02 21:01:08;;;;;;;;;;;24.00;99.90;;;;;;8392597;28;20386;-70
2022/08/02 21:05:09;;;;;;;;;;;23.90;99.90;;;;;;8453674;28;19977;-70
2022/08/02 21:09:18;;;;;;;;;;;23.80;99.90;;;;;;8436755;28;20409;-70
2022/08/02 21:13:20;;;;;;;;;;;23.70;99.90;;;;;;8462117;28;20386;-70
2022/08/02 21:17:23;;;;;;;;;;;23.60;99.90;;;;;;8462841;28;19943;-70
2022/08/02 21:21:28;;;;;;;;;;;23.50;99.90;;;;;;8457509;28;19967;-69
2022/08/02 21:25:30;;;;;;;;;;;23.40;99.90;;;;;;8439079;28;20331;-70
2022/08/02 21:29:43;;;;;;;;;;;23.30;99.90;;;;;;8440284;28;19930;-69
2022/08/02 21:33:44;;;;;;;;;;;23.20;99.90;;;;;;8462641;28;19923;-69
2022/08/02 21:37:58;;;;;;;;;;;23.20;99.90;;;;;;8430288;28;19932;-69
2022/08/02 21:42:00;;;;;;;;;;;23.10;99.90;;;;;;8456828;28;19953;-70
2022/08/02 21:46:02;;;;;;;;;;;23.00;99.90;;;;;;8463234;28;20034;-70
2022/08/02 21:50:06;;;;;;;;;;;23.00;99.90;;;;;;8462038;28;20011;-70
2022/08/02 21:54:13;;;;;;;;;;;22.90;99.90;;;;;;8462515;28;19924;-69
2022/08/02 21:58:19;;;;;;;;;;;22.80;99.90;;;;;;8462105;28;19928;-70
2022/08/02 22:02:21;;;;;;;;;;;22.80;99.90;;;;;;8462180;28;19951;-70
2022/08/02 22:06:33;;;;;;;;;;;22.70;99.90;;;;;;8462319;28;19928;-69
2022/08/02 22:10:59;;;;;;;;;;;22.60;99.90;;;;;;8434035;28;19924;-70
2022/08/02 22:14:59;;;;;;;;;;;22.50;99.90;;;;;;8461663;28;19931;-70
2022/08/02 22:19:00;;;;;;;;;;;22.40;99.90;;;;;;8460419;28;19945;-69
2022/08/02 22:23:03;;;;;;;;;;;22.40;99.90;;;;;;8461809;28;20287;-70
2022/08/02 22:37:20;;;;;;;;;;;22.20;99.90;;;;;;8429877;28;19935;-70
2022/08/02 22:41:42;;;;;;;;;;;22.20;99.90;;;;;;8446703;28;19967;-69
2022/08/02 22:46:04;;;;;;;;;;;22.10;99.90;;;;;;8461363;28;19931;-70
2022/08/02 22:50:06;;;;;;;;;;;22.10;99.90;;;;;;8437155;28;20267;-70
2022/08/02 22:54:08;;;;;;;;;;;22.00;99.90;;;;;;8461423;28;20022;-69
2022/08/02 22:58:12;;;;;;;;;;;22.00;99.90;;;;;;8448095;28;19927;-70
2022/08/02 23:02:14;;;;;;;;;;;22.00;99.90;;;;;;8461328;28;20363;-69
2022/08/02 23:06:18;;;;;;;;;;;22.00;99.90;;;;;;8461222;28;19978;-69
2022/08/02 23:10:19;;;;;;;;;;;22.00;99.90;;;;;;8455923;28;19928;-69
2022/08/02 23:14:21;;;;;;;;;;;22.00;99.90;;;;;;8461116;28;19924;-69
2022/08/02 23:23:03;;;;;;;;;;;21.90;99.90;;;;;;8318527;28;19925;-69
2022/08/02 23:27:04;;;;;;;;;;;21.90;99.90;;;;;;8384630;28;19927;-70
2022/08/02 23:31:25;;;;;;;;;;;21.90;99.90;;;;;;8454288;28;19924;-70
2022/08/02 23:35:26;;;;;;;;;;;21.90;99.90;;;;;;8455669;28;19927;-70
2022/08/02 23:39:29;;;;;;;;;;;21.80;99.90;;;;;;8418941;28;20000;-70
2022/08/02 23:43:30;;;;;;;;;;;21.80;99.90;;;;;;8460595;28;19931;-70
2022/08/02 23:47:32;;;;;;;;;;;21.80;99.90;;;;;;8459663;28;19924;-70
2022/08/02 23:51:34;;;;;;;;;;;21.80;99.90;;;;;;8459985;28;19924;-70
2022/08/02 23:55:35;;;;;;;;;;;21.80;99.90;;;;;;8460336;28;20232;-69
2022/08/02 23:59:37;;;;;;;;;;;21.70;99.90;;;;;;8459422;28;19927;-70
